Aérodrome :
LOGIN :

S'inscrire | Disclaimer

   EN    FR    IT 

 










Légende :    VFR   VFR Marginal   IFR   IFR Intensif   IFR Très Intensif
Visi : 
Plafond : 
>= 8 km
>= 3000ft
5 à 8 km
1000 à 3000 ft
1500m à 5 km
500 à 1000 ft
800 à 1500m
200 à 500 ft
< 800m
< 200 ft
Symboles :   Orages  Brouillard  Fortes neiges  Fortes précipitations  Vent > 20 kt
SIGMETs :   Divers  Orages  Givrage  Turbulence  Onde Orograph.  Cendres Volcan.







- Altitude de l'aérodrome : 231 ft
- Code IATA : WTN


EGXW - RAF Waddington

DERNIER METAR :
  • 242350Z 13005KT 3000 HZ OVC055 14/12 Q1019 YLO1

METARs EXPIRÉS :
  • 242324Z 12005KT 4000 HZ BKN050 14/12 Q1019 GRN
  • 242250Z 13006KT 5000 HZ BKN050 14/12 Q1020 WHT
  • 242150Z 13006KT 5000 HZ BKN050 14/12 Q1020 WHT

TAF TAF EGXW
Valide du 25 à 00h jusqu'au 25 à 18h UTC


242222Z 2500/2518 12007KT 5000 HZ FEW040
PROB40
TEMPO 2500/2508 2000 RA SCT003
BECMG 2508/2511 9999 NSW
PROB30
TEMPO 2509/2512 SCT010
PROB30
TEMPO 2512/2516 SCT015
Pas de NOTAMs connus pour ce terrain.



MET'MAP, la Météo Aéronautique d'un coup d'oeil ! - Copyright ORBIFLY Décembre 2007 - Disclaimer

ORBIFLY MET'MAP TEAM :

Programmation & Développement : Alexandra Zaïnal
Conception & Développement : Baudouin d'Aumeries
Co-Programmation & Développement : Marc-Olivier Méhu
Soutien technique & logistique : Manuel Goepfert

Contact : metmap@orbifly.com




SOURCES & CREDITS :

   NOAA